createdAt,value
2022-10-19T00:02:13.121Z,101718.94
2022-10-19T00:04:40.042Z,101725.03
2022-10-19T00:07:06.861Z,101732.88
2022-10-19T00:09:33.669Z,101726.94
2022-10-19T00:12:00.581Z,101720.97
2022-10-19T00:14:27.388Z,101721.44
2022-10-19T00:16:55.663Z,101717.28
2022-10-19T00:19:24.261Z,101724.09
2022-10-19T00:24:17.965Z,101727.19
2022-10-19T00:26:44.800Z,101724.78
2022-10-19T00:29:12.803Z,101729.31
2022-10-19T00:31:39.720Z,101721.22
2022-10-19T00:34:06.581Z,101713.72
2022-10-19T00:36:35.404Z,101715.25
2022-10-19T00:39:02.720Z,101699.19
2022-10-19T00:41:30.740Z,101688.94
2022-10-19T00:44:08.240Z,101715.25
2022-10-19T00:46:37.200Z,101717.97
2022-10-19T00:49:10.900Z,101728.25
2022-10-19T00:51:40.080Z,101726.00
2022-10-19T00:54:07.021Z,101724.91
2022-10-19T00:56:34.043Z,101715.63
2022-10-19T00:59:03.240Z,101723.84
2022-10-19T01:01:30.172Z,101716.69
2022-10-19T01:03:57.100Z,101720.59
2022-10-19T01:06:24.263Z,101722.88
2022-10-19T01:08:51.082Z,101726.56
2022-10-19T01:11:23.907Z,101724.28
2022-10-19T01:13:54.461Z,101732.59
2022-10-19T01:16:46.204Z,101719.25
2022-10-19T01:19:28.523Z,101723.28
2022-10-19T01:22:19.624Z,101729.97
2022-10-19T01:25:11.638Z,101730.06
2022-10-19T01:27:51.361Z,101728.06
2022-10-19T01:30:28.744Z,101718.44
2022-10-19T01:33:20.141Z,101720.25
2022-10-19T01:35:52.840Z,101718.56
2022-10-19T01:38:27.069Z,101710.56
2022-10-19T01:41:35.521Z,101707.97
2022-10-19T01:44:09.788Z,101700.56
2022-10-19T01:46:41.259Z,101698.69
2022-10-19T01:49:33.643Z,101703.34
2022-10-19T01:52:02.562Z,101689.53
2022-10-19T01:54:31.141Z,101686.44
2022-10-19T01:56:58.980Z,101683.38
2022-10-19T01:59:25.820Z,101684.44
2022-10-19T02:01:52.939Z,101688.34
2022-10-19T02:04:21.061Z,101676.69
2022-10-19T02:06:47.886Z,101686.00
2022-10-19T02:09:18.282Z,101690.97
2022-10-19T02:11:53.363Z,101685.72
2022-10-19T02:14:25.701Z,101694.06
2022-10-19T02:16:55.301Z,101691.09
2022-10-19T02:21:49.003Z,101700.13
2022-10-19T02:24:15.841Z,101704.19
2022-10-19T02:26:42.742Z,101700.47
2022-10-19T02:29:09.740Z,101711.88
2022-10-19T02:31:36.561Z,101710.00
2022-10-19T02:34:03.399Z,101716.41
2022-10-19T02:36:30.240Z,101711.84
2022-10-19T02:38:57.043Z,101722.69
2022-10-19T02:41:35.380Z,101717.22
2022-10-19T02:44:09.559Z,101724.38
2022-10-19T02:46:42.567Z,101711.13
2022-10-19T02:49:09.706Z,101707.31
2022-10-19T02:51:40.782Z,101708.13
2022-10-19T02:54:08.164Z,101719.94
2022-10-19T02:56:35.139Z,101724.22
2022-10-19T02:59:02.662Z,101722.41
2022-10-19T03:01:29.460Z,101723.28
2022-10-19T03:03:56.341Z,101718.13
2022-10-19T03:06:23.683Z,101726.00
2022-10-19T03:08:51.040Z,101709.09
2022-10-19T03:11:17.840Z,101719.78
2022-10-19T03:13:44.831Z,101727.41
2022-10-19T03:16:12.390Z,101718.97
2022-10-19T03:18:39.480Z,101727.31
2022-10-19T03:21:10.780Z,101731.59
2022-10-19T03:23:38.040Z,101729.94
2022-10-19T03:26:07.611Z,101733.25
2022-10-19T03:28:36.942Z,101732.31
2022-10-19T03:31:03.759Z,101739.06
2022-10-19T03:33:30.542Z,101742.44
2022-10-19T03:36:22.219Z,101746.69
2022-10-19T03:38:55.741Z,101744.91
2022-10-19T03:41:23.339Z,101751.88
2022-10-19T03:43:50.325Z,101750.16
2022-10-19T03:46:17.301Z,101753.53
2022-10-19T03:48:44.241Z,101742.56
2022-10-19T03:51:12.952Z,101757.81
2022-10-19T03:53:40.721Z,101753.06
2022-10-19T03:56:09.400Z,101751.75
2022-10-19T03:58:37.001Z,101752.69
2022-10-19T04:01:07.417Z,101752.91
2022-10-19T04:06:15.810Z,101765.91
2022-10-19T04:08:45.180Z,101762.44
2022-10-19T04:11:13.521Z,101774.88
2022-10-19T04:13:40.443Z,101767.09
2022-10-19T04:16:07.781Z,101768.44
2022-10-19T04:18:34.603Z,101770.59
2022-10-19T04:21:04.923Z,101767.53
2022-10-19T04:23:33.623Z,101785.53
2022-10-19T04:26:04.548Z,101789.13
2022-10-19T04:28:31.446Z,101784.94
2022-10-19T04:30:58.340Z,101794.22
2022-10-19T04:33:25.180Z,101804.34
2022-10-19T04:35:57.584Z,101808.66
2022-10-19T04:38:24.408Z,101809.34
2022-10-19T04:40:51.322Z,101809.47
2022-10-19T04:43:18.182Z,101803.66
2022-10-19T04:45:45.020Z,101822.00
2022-10-19T04:48:14.960Z,101822.25
2022-10-19T04:50:42.136Z,101817.22
2022-10-19T04:53:09.044Z,101820.09
2022-10-19T04:55:40.964Z,101815.09
2022-10-19T04:58:07.900Z,101817.84
2022-10-19T05:00:34.948Z,101808.78
2022-10-19T05:03:01.804Z,101819.63
2022-10-19T05:05:28.619Z,101822.00
2022-10-19T05:07:55.441Z,101825.31
2022-10-19T05:10:22.244Z,101827.25
2022-10-19T05:12:49.042Z,101828.53
2022-10-19T05:15:15.924Z,101833.19
2022-10-19T05:17:42.763Z,101832.94
2022-10-19T05:20:11.407Z,101834.88
2022-10-19T05:22:38.962Z,101824.84
2022-10-19T05:25:07.129Z,101842.22
2022-10-19T05:27:34.639Z,101841.63
2022-10-19T05:30:01.642Z,101843.19
2022-10-19T05:32:28.781Z,101845.81
2022-10-19T05:34:55.560Z,101851.66
2022-10-19T05:37:22.647Z,101856.53
2022-10-19T05:39:49.422Z,101860.59
2022-10-19T05:42:16.240Z,101864.63
2022-10-19T05:44:43.104Z,101861.91
2022-10-19T05:47:09.920Z,101864.41
2022-10-19T05:49:36.802Z,101872.63
2022-10-19T05:52:03.743Z,101873.47
2022-10-19T05:54:30.630Z,101871.22
2022-10-19T05:56:57.462Z,101872.78
2022-10-19T05:59:24.345Z,101859.19
2022-10-19T06:01:51.405Z,101871.22
2022-10-19T06:04:18.343Z,101876.81
2022-10-19T06:06:45.941Z,101880.91
2022-10-19T06:09:12.922Z,101883.16
2022-10-19T06:11:40.787Z,101885.41
2022-10-19T06:14:09.739Z,101888.53
2022-10-19T06:16:36.622Z,101898.88
2022-10-19T06:19:03.623Z,101901.66
2022-10-19T06:21:30.882Z,101901.88
2022-10-19T06:23:59.463Z,101898.53
2022-10-19T06:26:26.524Z,101916.28
2022-10-19T06:28:55.611Z,101917.47
2022-10-19T06:31:22.400Z,101916.66
2022-10-19T06:33:49.756Z,101919.75
2022-10-19T06:36:21.860Z,101902.56
2022-10-19T06:38:48.898Z,101923.00
2022-10-19T06:41:15.883Z,101934.28
2022-10-19T06:43:43.602Z,101930.75
2022-10-19T06:46:20.571Z,101935.28
2022-10-19T06:48:54.670Z,101944.03
2022-10-19T06:51:21.801Z,101939.09
2022-10-19T06:53:51.671Z,101956.97
2022-10-19T06:56:24.609Z,101958.34
2022-10-19T06:58:51.660Z,101959.53
2022-10-19T07:01:18.600Z,101979.44
2022-10-19T07:03:45.582Z,101966.84
2022-10-19T07:06:12.822Z,101971.00
2022-10-19T07:08:40.521Z,101981.22
2022-10-19T07:11:09.719Z,101985.13
2022-10-19T07:13:36.606Z,101992.06
2022-10-19T07:16:08.521Z,101993.03
2022-10-19T07:18:35.802Z,101990.34
2022-10-19T07:21:03.922Z,101985.53
2022-10-19T07:23:31.578Z,101997.50
2022-10-19T07:26:01.899Z,101996.78
2022-10-19T07:28:29.580Z,102009.94
2022-10-19T07:30:56.540Z,101998.97
2022-10-19T07:33:23.485Z,102014.53
2022-10-19T07:35:50.344Z,102002.84
2022-10-19T07:38:17.180Z,102000.09
2022-10-19T07:40:46.562Z,102010.13
2022-10-19T07:43:14.482Z,102010.97
2022-10-19T07:45:41.324Z,102009.25
2022-10-19T07:48:08.202Z,102012.25
2022-10-19T07:50:35.024Z,102019.25
2022-10-19T07:53:03.599Z,102022.31
2022-10-19T07:55:30.421Z,102016.34
2022-10-19T07:58:01.567Z,102018.88
2022-10-19T08:00:28.599Z,102027.38
2022-10-19T08:03:19.353Z,102016.19
2022-10-19T08:05:42.501Z,102020.66
2022-10-19T08:08:09.302Z,102017.81
2022-10-19T08:10:36.141Z,102021.94
2022-10-19T08:13:02.980Z,102013.84
2022-10-19T08:15:30.330Z,102031.63
2022-10-19T08:17:57.201Z,102041.09
2022-10-19T08:20:24.022Z,102047.16
2022-10-19T08:22:55.038Z,102056.56
2022-10-19T08:25:24.989Z,102060.09
2022-10-19T08:27:52.634Z,102065.88
2022-10-19T08:30:19.480Z,102062.75
2022-10-19T08:32:46.302Z,102061.53
2022-10-19T08:35:13.120Z,102055.31
2022-10-19T08:37:44.744Z,102068.84
2022-10-19T08:40:25.801Z,102073.22
2022-10-19T08:42:58.399Z,102077.88
2022-10-19T08:45:47.067Z,102073.88
2022-10-19T08:48:16.822Z,102071.34
2022-10-19T08:50:44.282Z,102060.91
2022-10-19T08:53:22.544Z,102058.34
2022-10-19T08:55:55.259Z,102058.31
2022-10-19T08:58:36.881Z,102065.06
2022-10-19T09:01:22.440Z,102067.97
2022-10-19T09:03:56.306Z,102062.25
2022-10-19T09:06:37.684Z,102076.81
2022-10-19T09:09:05.121Z,102083.22
2022-10-19T09:11:34.964Z,102085.56
2022-10-19T09:14:23.652Z,102092.78
2022-10-19T09:16:50.485Z,102110.09
2022-10-19T09:19:29.520Z,102101.72
2022-10-19T09:21:57.221Z,102101.41
2022-10-19T09:24:43.781Z,102116.25
2022-10-19T09:27:37.040Z,102108.97
2022-10-19T09:30:06.267Z,102104.78
2022-10-19T09:32:38.103Z,102110.84
2022-10-19T09:35:07.705Z,102097.16
2022-10-19T09:37:37.584Z,102112.28
2022-10-19T09:40:06.042Z,102123.41
2022-10-19T09:42:34.049Z,102109.69
2022-10-19T09:45:06.721Z,102102.09
2022-10-19T09:47:38.390Z,102132.59
2022-10-19T09:50:15.003Z,102129.16
2022-10-19T09:52:42.642Z,102143.72
2022-10-19T09:55:15.859Z,102150.53
2022-10-19T09:57:49.910Z,102154.38
2022-10-19T10:00:24.341Z,102153.88
2022-10-19T10:02:55.227Z,102136.34
2022-10-19T10:05:42.338Z,102147.81
2022-10-19T10:08:14.517Z,102150.19
2022-10-19T10:10:46.621Z,102145.34
2022-10-19T10:13:24.502Z,102153.09
2022-10-19T10:15:55.022Z,102160.56
2022-10-19T10:18:21.923Z,102163.78
2022-10-19T10:21:11.442Z,102166.09
2022-10-19T10:23:38.421Z,102187.31
2022-10-19T10:26:06.321Z,102192.59
2022-10-19T10:28:33.181Z,102187.09
2022-10-19T10:31:05.082Z,102191.09
2022-10-19T10:33:44.248Z,102180.00
2022-10-19T10:36:12.099Z,102173.59
2022-10-19T10:38:47.562Z,102167.53
2022-10-19T10:41:20.271Z,102162.75
2022-10-19T10:44:05.022Z,102170.63
2022-10-19T10:46:37.280Z,102146.44
2022-10-19T10:49:07.824Z,102165.63
2022-10-19T10:51:39.017Z,102175.31
2022-10-19T10:54:32.444Z,102189.16
2022-10-19T10:57:19.934Z,102200.97
2022-10-19T10:59:55.681Z,102195.28
2022-10-19T11:02:30.662Z,102210.13
2022-10-19T11:05:14.343Z,102204.97
2022-10-19T11:08:02.743Z,102202.31
2022-10-19T11:10:37.683Z,102206.13
2022-10-19T11:13:15.361Z,102181.22
2022-10-19T11:15:47.841Z,102178.72
2022-10-19T11:18:27.745Z,102177.09
2022-10-19T11:21:12.661Z,102188.34
2022-10-19T11:24:04.002Z,102196.03
2022-10-19T11:26:55.275Z,102196.25
2022-10-19T11:29:34.661Z,102202.59
2022-10-19T11:32:01.587Z,102209.44
2022-10-19T11:35:05.843Z,102218.19
2022-10-19T11:38:17.547Z,102218.19
2022-10-19T11:40:59.665Z,102199.66
2022-10-19T11:43:49.310Z,102203.09
2022-10-19T11:46:30.900Z,102192.72
2022-10-19T11:49:18.661Z,102198.03
2022-10-19T11:52:13.104Z,102188.97
2022-10-19T11:54:54.267Z,102182.94
2022-10-19T11:57:46.902Z,102195.41
2022-10-19T12:00:38.314Z,102178.13
2022-10-19T12:03:29.330Z,102186.50
2022-10-19T12:06:19.267Z,102215.41
2022-10-19T12:09:01.071Z,102214.47
2022-10-19T12:11:40.150Z,102201.34
2022-10-19T12:14:11.580Z,102223.16
2022-10-19T12:16:40.619Z,102238.59
2022-10-19T12:19:07.544Z,102225.41
2022-10-19T12:21:38.480Z,102237.16
2022-10-19T12:24:16.622Z,102249.06
2022-10-19T12:26:43.440Z,102222.00
2022-10-19T12:29:19.904Z,102225.06
2022-10-19T12:31:47.065Z,102233.47
2022-10-19T12:34:51.024Z,102229.06
2022-10-19T12:37:58.242Z,102233.19
2022-10-19T12:40:47.860Z,102226.34
2022-10-19T12:43:19.271Z,102216.59
2022-10-19T12:46:23.403Z,102230.63
2022-10-19T12:49:27.903Z,102230.16
2022-10-19T12:51:56.244Z,102224.47
2022-10-19T12:54:28.518Z,102214.72
2022-10-19T12:56:56.741Z,102212.41
2022-10-19T12:59:34.183Z,102225.16
2022-10-19T13:02:01.761Z,102226.94
2022-10-19T13:04:33.063Z,102231.13
2022-10-19T13:07:04.563Z,102235.91
2022-10-19T13:09:38.371Z,102232.31
2022-10-19T13:12:21.527Z,102243.50
2022-10-19T13:15:01.036Z,102244.91
2022-10-19T13:17:34.358Z,102249.19
2022-10-19T13:20:13.314Z,102260.53
2022-10-19T13:22:41.004Z,102254.69
2022-10-19T13:25:27.287Z,102246.28
2022-10-19T13:27:55.185Z,102271.44
2022-10-19T13:30:43.543Z,102265.28
2022-10-19T13:33:29.167Z,102278.34
2022-10-19T13:35:58.940Z,102277.97
2022-10-19T13:38:28.830Z,102282.88
2022-10-19T13:40:55.642Z,102285.47
2022-10-19T13:43:27.641Z,102276.94
2022-10-19T13:46:10.881Z,102288.47
2022-10-19T13:49:05.305Z,102300.28
2022-10-19T13:51:33.701Z,102291.81
2022-10-19T13:54:37.602Z,102299.22
2022-10-19T13:57:42.090Z,102306.31
2022-10-19T14:00:15.941Z,102308.97
2022-10-19T14:02:51.205Z,102326.56
2022-10-19T14:05:35.761Z,102335.63
2022-10-19T14:08:45.048Z,102341.53
2022-10-19T14:11:13.325Z,102332.88
2022-10-19T14:13:40.304Z,102323.00
2022-10-19T14:16:07.224Z,102318.66
2022-10-19T14:18:35.465Z,102324.66
2022-10-19T14:21:09.305Z,102314.03
2022-10-19T14:23:38.248Z,102319.91
2022-10-19T14:26:16.942Z,102318.34
2022-10-19T14:28:43.780Z,102318.09
2022-10-19T14:31:13.325Z,102320.97
2022-10-19T14:33:40.762Z,102318.56
2022-10-19T14:36:07.841Z,102334.38
2022-10-19T14:38:38.561Z,102336.63
2022-10-19T14:41:06.065Z,102330.88
2022-10-19T14:43:34.362Z,102321.47
2022-10-19T14:46:07.253Z,102334.09
2022-10-19T14:48:38.440Z,102334.72
2022-10-19T14:51:15.139Z,102333.38
2022-10-19T14:53:42.021Z,102341.25
2022-10-19T14:56:17.803Z,102339.28
2022-10-19T14:59:06.003Z,102347.22
2022-10-19T15:01:32.890Z,102333.88
2022-10-19T15:03:59.745Z,102333.81
2022-10-19T15:06:31.222Z,102331.81
2022-10-19T15:09:03.453Z,102332.44
2022-10-19T15:11:38.282Z,102335.59
2022-10-19T15:14:21.962Z,102340.38
2022-10-19T15:16:58.151Z,102333.47
2022-10-19T15:19:30.801Z,102327.78
2022-10-19T15:22:23.791Z,102335.75
2022-10-19T15:25:23.840Z,102321.09
2022-10-19T15:27:51.180Z,102333.72
2022-10-19T15:30:17.921Z,102338.50
2022-10-19T15:32:45.742Z,102351.63
2022-10-19T15:35:33.561Z,102347.53
2022-10-19T15:38:24.499Z,102355.41
2022-10-19T15:40:56.880Z,102363.91
2022-10-19T15:43:33.528Z,102367.13
2022-10-19T15:46:12.518Z,102364.28
2022-10-19T15:48:42.926Z,102374.44
2022-10-19T15:51:29.125Z,102373.31
2022-10-19T15:54:03.546Z,102358.50
2022-10-19T15:56:32.088Z,102367.50
2022-10-19T15:59:00.029Z,102371.47
2022-10-19T16:01:28.394Z,102370.25
2022-10-19T16:03:55.502Z,102360.59
2022-10-19T16:06:23.447Z,102362.22
2022-10-19T16:08:51.396Z,102378.59
2022-10-19T16:11:19.203Z,102371.22
2022-10-19T16:13:46.143Z,102374.88
2022-10-19T16:16:18.345Z,102381.25
2022-10-19T16:18:45.142Z,102388.25
2022-10-19T16:21:12.004Z,102394.03
2022-10-19T16:23:41.876Z,102396.25
2022-10-19T16:26:09.183Z,102391.78
2022-10-19T16:28:36.023Z,102394.50
2022-10-19T16:31:02.986Z,102408.69
2022-10-19T16:33:29.762Z,102402.06
2022-10-19T16:35:56.622Z,102411.31
2022-10-19T16:38:23.442Z,102411.03
2022-10-19T16:40:50.261Z,102406.44
2022-10-19T16:43:17.061Z,102408.88
2022-10-19T16:45:44.008Z,102412.44
2022-10-19T16:48:13.706Z,102416.91
2022-10-19T16:50:40.593Z,102433.84
2022-10-19T16:53:11.561Z,102404.50
2022-10-19T16:55:39.846Z,102414.59
2022-10-19T16:58:06.782Z,102417.97
2022-10-19T17:00:33.863Z,102410.38
2022-10-19T17:03:00.638Z,102409.19
2022-10-19T17:05:27.501Z,102408.22
2022-10-19T17:07:54.333Z,102396.44
2022-10-19T17:10:21.186Z,102415.09
2022-10-19T17:12:48.045Z,102421.38
2022-10-19T17:15:41.610Z,102426.47
2022-10-19T17:18:01.684Z,102437.34
2022-10-19T17:20:28.515Z,102434.84
2022-10-19T17:22:55.333Z,102435.75
2022-10-19T17:25:22.127Z,102437.19
2022-10-19T17:27:52.228Z,102432.88
2022-10-19T17:30:19.042Z,102435.06
2022-10-19T17:32:45.892Z,102440.28
2022-10-19T17:35:12.746Z,102437.94
2022-10-19T17:37:39.595Z,102433.91
2022-10-19T17:40:07.296Z,102433.28
2022-10-19T17:42:36.564Z,102448.22
2022-10-19T17:45:03.593Z,102444.84
2022-10-19T17:47:30.695Z,102448.28
2022-10-19T17:49:57.645Z,102460.00
2022-10-19T17:52:24.424Z,102462.34
2022-10-19T17:55:11.076Z,102456.38
2022-10-19T17:57:38.254Z,102470.59
2022-10-19T18:00:07.200Z,102476.50
2022-10-19T18:02:35.610Z,102468.28
2022-10-19T18:05:02.689Z,102452.78
2022-10-19T18:07:29.533Z,102467.19
2022-10-19T18:09:56.358Z,102462.06
2022-10-19T18:12:23.232Z,102461.88
2022-10-19T18:14:50.037Z,102463.25
2022-10-19T18:17:16.881Z,102460.72
2022-10-19T18:19:43.685Z,102473.28
2022-10-19T18:22:10.570Z,102473.63
2022-10-19T18:24:37.396Z,102472.88
2022-10-19T18:27:04.214Z,102475.72
2022-10-19T18:29:31.011Z,102465.50
2022-10-19T18:31:57.921Z,102466.91
2022-10-19T18:34:25.780Z,102466.16
2022-10-19T18:36:52.715Z,102459.50
2022-10-19T18:39:19.486Z,102467.66
2022-10-19T18:41:46.400Z,102475.41
2022-10-19T18:44:13.410Z,102463.44
2022-10-19T18:46:40.196Z,102466.91
2022-10-19T18:49:08.274Z,102464.28
2022-10-19T18:51:35.227Z,102470.28
2022-10-19T18:54:02.112Z,102471.00
2022-10-19T18:56:29.606Z,102476.00
2022-10-19T18:58:56.850Z,102479.34
2022-10-19T19:01:27.547Z,102484.56
2022-10-19T19:03:58.765Z,102479.19
2022-10-19T19:06:28.983Z,102479.09
2022-10-19T19:08:56.651Z,102486.84
2022-10-19T19:11:25.117Z,102484.22
2022-10-19T19:13:56.196Z,102474.41
2022-10-19T19:16:23.307Z,102483.06
2022-10-19T19:18:50.290Z,102500.00
2022-10-19T19:21:24.747Z,102491.00
2022-10-19T19:23:51.873Z,102482.59
2022-10-19T19:26:19.198Z,102493.34
2022-10-19T19:28:49.096Z,102496.22
2022-10-19T19:31:17.442Z,102493.16
2022-10-19T19:33:45.089Z,102502.78
2022-10-19T19:36:12.805Z,102502.19
2022-10-19T19:38:39.674Z,102502.41
2022-10-19T19:41:11.688Z,102504.50
2022-10-19T19:43:38.800Z,102507.63
2022-10-19T19:46:09.540Z,102501.78
2022-10-19T19:48:37.245Z,102500.63
2022-10-19T19:51:04.138Z,102500.25
2022-10-19T19:53:31.168Z,102489.00
2022-10-19T19:55:57.995Z,102514.06
2022-10-19T19:58:24.749Z,102511.00
2022-10-19T20:00:51.510Z,102515.63
2022-10-19T20:03:18.428Z,102514.13
2022-10-19T20:05:45.250Z,102516.88
2022-10-19T20:08:12.053Z,102511.22
2022-10-19T20:10:42.209Z,102510.69
2022-10-19T20:13:09.112Z,102516.81
2022-10-19T20:15:39.070Z,102514.13
2022-10-19T20:18:06.648Z,102508.06
2022-10-19T20:20:33.533Z,102510.53
2022-10-19T20:23:00.328Z,102511.28
2022-10-19T20:25:27.216Z,102520.81
2022-10-19T20:27:54.050Z,102522.47
2022-10-19T20:30:20.897Z,102528.47
2022-10-19T20:32:47.735Z,102524.84
2022-10-19T20:35:14.712Z,102522.47
2022-10-19T20:37:41.735Z,102523.72
2022-10-19T20:40:09.187Z,102526.75
2022-10-19T20:42:36.427Z,102533.25
2022-10-19T20:45:03.940Z,102526.59
2022-10-19T20:47:30.808Z,102534.25
2022-10-19T20:49:57.697Z,102534.00
2022-10-19T20:52:24.602Z,102536.41
2022-10-19T20:54:51.362Z,102536.19
2022-10-19T20:57:18.192Z,102536.88
2022-10-19T20:59:45.811Z,102541.69
2022-10-19T21:02:12.620Z,102537.13
2022-10-19T21:04:39.459Z,102538.50
2022-10-19T21:07:06.304Z,102539.97
2022-10-19T21:09:33.255Z,102536.28
2022-10-19T21:12:01.387Z,102545.56
2022-10-19T21:14:29.149Z,102541.13
2022-10-19T21:16:59.886Z,102540.91
2022-10-19T21:19:27.733Z,102535.44
2022-10-19T21:21:57.005Z,102542.97
2022-10-19T21:24:25.838Z,102543.78
2022-10-19T21:26:52.895Z,102540.19
2022-10-19T21:29:19.910Z,102543.72
2022-10-19T21:31:49.109Z,102534.81
2022-10-19T21:34:24.120Z,102527.91
2022-10-19T21:36:50.970Z,102533.06
2022-10-19T21:39:17.844Z,102533.75
2022-10-19T21:41:44.789Z,102529.31
2022-10-19T21:44:11.568Z,102531.81
2022-10-19T21:46:38.398Z,102531.72
2022-10-19T21:49:05.214Z,102534.28
2022-10-19T21:51:54.127Z,102530.66
2022-10-19T21:54:22.555Z,102526.34
2022-10-19T21:56:49.509Z,102533.09
2022-10-19T21:59:16.766Z,102524.44
2022-10-19T22:01:43.757Z,102529.59
2022-10-19T22:04:15.053Z,102529.75
2022-10-19T22:06:42.144Z,102532.19
2022-10-19T22:09:10.094Z,102540.75
2022-10-19T22:11:37.028Z,102536.47
2022-10-19T22:14:03.996Z,102529.50
2022-10-19T22:16:31.156Z,102532.19
2022-10-19T22:18:58.027Z,102537.56
2022-10-19T22:21:26.831Z,102538.56
2022-10-19T22:24:04.056Z,102537.03
2022-10-19T22:26:35.921Z,102538.19
2022-10-19T22:29:02.988Z,102535.81
2022-10-19T22:31:30.917Z,102538.72
2022-10-19T22:33:57.994Z,102544.97
2022-10-19T22:36:24.814Z,102533.06
2022-10-19T22:38:51.653Z,102534.84
2022-10-19T22:41:18.945Z,102540.31
2022-10-19T22:43:45.695Z,102544.09
2022-10-19T22:46:12.443Z,102541.03
2022-10-19T22:48:39.188Z,102539.66
2022-10-19T22:51:06.048Z,102535.19
2022-10-19T22:53:32.785Z,102539.06
2022-10-19T22:55:59.562Z,102551.56
2022-10-19T22:58:26.298Z,102551.16
2022-10-19T23:01:00.820Z,102541.31
2022-10-19T23:03:27.586Z,102558.63
2022-10-19T23:05:54.339Z,102547.47
2022-10-19T23:08:21.073Z,102538.16
2022-10-19T23:10:47.777Z,102544.47
2022-10-19T23:13:15.225Z,102535.31
2022-10-19T23:15:43.947Z,102540.94
2022-10-19T23:18:11.253Z,102545.69
2022-10-19T23:20:38.037Z,102540.88
2022-10-19T23:23:04.995Z,102546.53
2022-10-19T23:27:58.427Z,102547.41
2022-10-19T23:30:25.176Z,102538.53
2022-10-19T23:32:51.949Z,102550.19
2022-10-19T23:35:18.695Z,102552.47
2022-10-19T23:37:45.415Z,102552.25
2022-10-19T23:40:12.453Z,102558.00
2022-10-19T23:42:39.255Z,102556.91
2022-10-19T23:45:06.627Z,102548.25
2022-10-19T23:47:33.661Z,102565.84
2022-10-19T23:50:00.620Z,102562.25
2022-10-19T23:52:27.406Z,102561.22
2022-10-19T23:54:54.204Z,102555.94
2022-10-19T23:57:21.013Z,102561.00
2022-10-19T23:59:47.835Z,102559.22
